createdAt,value
2023-05-06T04:34:59.363Z,99709.81
2023-05-06T04:37:28.465Z,99715.06
2023-05-06T04:40:04.626Z,99707.00
2023-05-06T04:42:34.113Z,99723.25
2023-05-06T04:45:09.680Z,99708.13
2023-05-06T04:47:38.255Z,99718.03
2023-05-06T04:50:06.251Z,99718.19
2023-05-06T04:52:33.313Z,99723.88
2023-05-06T04:55:00.148Z,99718.19
2023-05-06T04:57:27.135Z,99726.56
2023-05-06T04:59:55.535Z,99730.13
2023-05-06T05:02:22.672Z,99726.34
2023-05-06T05:04:50.617Z,99712.19
2023-05-06T05:07:17.901Z,99713.78
2023-05-06T05:09:45.557Z,99727.69
2023-05-06T05:12:13.001Z,99716.41
2023-05-06T05:14:43.224Z,99715.75
2023-05-06T05:17:12.233Z,99709.03
2023-05-06T05:19:41.081Z,99714.78
2023-05-06T05:22:08.528Z,99724.63
2023-05-06T05:24:35.567Z,99713.75
2023-05-06T05:27:02.719Z,99722.66
2023-05-06T05:29:30.614Z,99722.50
2023-05-06T05:31:59.585Z,99719.63
2023-05-06T05:34:26.657Z,99719.47
2023-05-06T05:36:54.293Z,99716.13
2023-05-06T05:39:21.188Z,99728.53
2023-05-06T05:41:48.520Z,99734.22
2023-05-06T05:44:16.050Z,99744.09
2023-05-06T05:46:43.230Z,99738.59
2023-05-06T05:49:13.716Z,99750.66
2023-05-06T05:51:41.416Z,99748.44
2023-05-06T05:54:09.965Z,99758.47
2023-05-06T05:56:37.140Z,99746.28
2023-05-06T05:59:04.132Z,99748.13
2023-05-06T06:01:31.159Z,99755.44
2023-05-06T06:04:00.008Z,99754.31
2023-05-06T06:06:27.113Z,99752.81
2023-05-06T06:08:54.762Z,99759.13
2023-05-06T06:11:22.566Z,99764.31
2023-05-06T06:13:49.621Z,99765.94
2023-05-06T06:16:17.312Z,99759.94
2023-05-06T06:18:44.177Z,99763.47
2023-05-06T06:21:10.989Z,99762.22
2023-05-06T06:23:38.873Z,99753.16
2023-05-06T06:26:06.680Z,99747.06
2023-05-06T06:28:33.811Z,99758.25
2023-05-06T06:31:02.047Z,99749.88
2023-05-06T06:33:29.097Z,99760.88
2023-05-06T06:35:55.932Z,99757.25
2023-05-06T06:38:22.863Z,99756.88
2023-05-06T06:40:49.716Z,99747.19
2023-05-06T06:43:16.842Z,99748.91
2023-05-06T06:45:54.452Z,99753.28
2023-05-06T06:48:21.518Z,99750.78
2023-05-06T06:50:48.343Z,99750.97
2023-05-06T06:53:15.176Z,99762.34
2023-05-06T06:55:48.036Z,99746.78
2023-05-06T06:58:14.924Z,99753.63
2023-05-06T07:00:42.528Z,99747.59
2023-05-06T07:03:09.396Z,99751.22
2023-05-06T07:05:36.252Z,99760.47
2023-05-06T07:08:03.584Z,99753.44
2023-05-06T07:10:30.464Z,99743.06
2023-05-06T07:12:58.381Z,99764.19
2023-05-06T07:15:25.831Z,99759.44
2023-05-06T07:17:52.719Z,99764.69
2023-05-06T07:20:19.691Z,99761.19
2023-05-06T07:22:46.681Z,99758.81
2023-05-06T07:25:13.744Z,99762.69
2023-05-06T07:27:40.713Z,99761.69
2023-05-06T07:30:08.350Z,99758.44
2023-05-06T07:32:35.197Z,99756.41
2023-05-06T07:35:02.062Z,99760.22
2023-05-06T07:37:28.908Z,99758.31
2023-05-06T07:39:56.924Z,99761.47
2023-05-06T07:42:23.724Z,99766.63
2023-05-06T07:44:50.631Z,99763.09
2023-05-06T07:47:27.990Z,99769.38
2023-05-06T07:49:55.335Z,99766.66
2023-05-06T07:52:23.140Z,99761.97
2023-05-06T07:54:50.096Z,99766.50
2023-05-06T07:57:17.610Z,99767.03
2023-05-06T07:59:48.275Z,99772.03
2023-05-06T08:02:15.395Z,99776.06
2023-05-06T08:04:43.029Z,99772.22
2023-05-06T08:07:10.880Z,99763.31
2023-05-06T08:09:37.955Z,99769.56
2023-05-06T08:12:05.487Z,99776.44
2023-05-06T08:14:32.408Z,99765.34
2023-05-06T08:16:59.295Z,99778.56
2023-05-06T08:19:26.900Z,99772.88
2023-05-06T08:21:53.858Z,99775.88
2023-05-06T08:24:21.018Z,99778.91
2023-05-06T08:26:47.872Z,99768.81
2023-05-06T08:29:14.733Z,99775.19
2023-05-06T08:31:41.584Z,99777.59
2023-05-06T08:34:08.531Z,99780.50
2023-05-06T08:36:35.364Z,99772.63
2023-05-06T08:39:02.223Z,99772.25
2023-05-06T08:41:30.589Z,99774.25
2023-05-06T08:44:00.903Z,99786.25
2023-05-06T08:46:30.850Z,99785.09
2023-05-06T08:48:59.030Z,99795.75
2023-05-06T08:51:31.964Z,99799.34
2023-05-06T08:54:02.541Z,99787.34
2023-05-06T08:56:32.942Z,99780.72
2023-05-06T08:59:00.257Z,99791.66
2023-05-06T09:01:28.138Z,99795.34
2023-05-06T09:03:59.464Z,99792.75
2023-05-06T09:06:27.217Z,99798.50
2023-05-06T09:08:54.587Z,99791.44
2023-05-06T09:11:25.185Z,99785.97
2023-05-06T09:14:08.580Z,99774.72
2023-05-06T09:16:35.666Z,99778.75
2023-05-06T09:19:02.695Z,99774.94
2023-05-06T09:21:33.310Z,99780.63
2023-05-06T09:24:01.102Z,99778.44
2023-05-06T09:26:29.718Z,99791.66
2023-05-06T09:28:57.926Z,99785.47
2023-05-06T09:31:26.031Z,99783.19
2023-05-06T09:33:57.701Z,99779.53
2023-05-06T09:36:26.333Z,99776.09
2023-05-06T09:38:56.572Z,99772.13
2023-05-06T09:41:28.188Z,99785.69
2023-05-06T09:43:56.726Z,99774.78
2023-05-06T09:46:25.426Z,99774.13
2023-05-06T09:48:55.894Z,99773.88
2023-05-06T09:51:22.934Z,99775.09
2023-05-06T09:53:49.785Z,99775.38
2023-05-06T09:56:17.229Z,99773.69
2023-05-06T09:58:46.129Z,99771.56
2023-05-06T10:01:25.128Z,99776.97
2023-05-06T10:04:04.921Z,99773.63
2023-05-06T10:06:35.660Z,99772.78
2023-05-06T10:09:02.758Z,99777.78
2023-05-06T10:11:31.852Z,99780.69
2023-05-06T10:14:01.378Z,99779.66
2023-05-06T10:16:29.247Z,99767.72
2023-05-06T10:18:58.357Z,99778.94
2023-05-06T10:21:27.850Z,99789.25
2023-05-06T10:24:05.023Z,99787.13
2023-05-06T10:26:32.591Z,99784.47
2023-05-06T10:29:04.730Z,99780.63
2023-05-06T10:31:34.092Z,99775.72
2023-05-06T10:34:04.870Z,99778.75
2023-05-06T10:36:36.359Z,99784.34
2023-05-06T10:39:04.726Z,99776.59
2023-05-06T10:41:33.450Z,99770.91
2023-05-06T10:44:00.673Z,99772.84
2023-05-06T10:46:30.748Z,99775.63
2023-05-06T10:49:06.814Z,99768.03
2023-05-06T10:51:34.674Z,99774.59
2023-05-06T10:54:11.242Z,99774.59
2023-05-06T10:56:48.719Z,99767.66
2023-05-06T10:59:21.302Z,99764.91
2023-05-06T11:01:56.321Z,99763.59
2023-05-06T11:04:23.621Z,99760.69
2023-05-06T11:06:51.791Z,99753.31
2023-05-06T11:09:19.836Z,99749.19
2023-05-06T11:11:47.429Z,99753.28
2023-05-06T11:14:15.775Z,99747.09
2023-05-06T11:16:52.697Z,99763.97
2023-05-06T11:19:23.842Z,99750.00
2023-05-06T11:21:52.283Z,99759.13
2023-05-06T11:24:26.112Z,99752.72
2023-05-06T11:26:54.358Z,99741.28
2023-05-06T11:29:22.049Z,99742.28
2023-05-06T11:31:49.732Z,99748.38
2023-05-06T11:34:24.093Z,99747.44
2023-05-06T11:36:58.909Z,99743.84
2023-05-06T11:39:30.687Z,99739.91
2023-05-06T11:42:08.636Z,99741.69
2023-05-06T11:44:39.561Z,99749.59
2023-05-06T11:47:08.363Z,99741.06
2023-05-06T11:49:37.312Z,99735.19
2023-05-06T11:52:05.345Z,99730.72
2023-05-06T11:54:36.222Z,99741.56
2023-05-06T11:57:03.676Z,99732.31
2023-05-06T11:59:38.315Z,99736.50
2023-05-06T12:02:07.687Z,99741.00
2023-05-06T12:04:53.257Z,99737.41
2023-05-06T12:07:20.351Z,99736.69
2023-05-06T12:09:49.357Z,99741.00
2023-05-06T12:12:18.914Z,99726.94
2023-05-06T12:14:47.669Z,99729.19
2023-05-06T12:17:15.571Z,99728.75
2023-05-06T12:19:42.575Z,99732.75
2023-05-06T12:22:20.251Z,99728.38
2023-05-06T12:24:48.433Z,99727.75
2023-05-06T12:27:28.513Z,99724.97
2023-05-06T12:29:55.423Z,99711.59
2023-05-06T12:32:22.263Z,99729.34
2023-05-06T12:34:49.182Z,99726.63
2023-05-06T12:37:27.661Z,99718.13
2023-05-06T12:40:07.784Z,99719.81
2023-05-06T12:42:34.767Z,99719.00
2023-05-06T12:45:13.574Z,99726.09
2023-05-06T12:47:51.746Z,99712.56
2023-05-06T12:50:30.970Z,99736.00
2023-05-06T12:52:58.117Z,99736.50
2023-05-06T12:55:27.865Z,99737.31
2023-05-06T12:57:57.217Z,99723.34
2023-05-06T13:00:24.751Z,99732.91
2023-05-06T13:02:52.025Z,99733.44
2023-05-06T13:05:18.960Z,99732.50
2023-05-06T13:07:45.928Z,99732.59
2023-05-06T13:10:13.078Z,99742.03
2023-05-06T13:12:40.265Z,99736.25
2023-05-06T13:15:08.659Z,99735.38
2023-05-06T13:17:35.585Z,99736.69
2023-05-06T13:20:04.462Z,99745.81
2023-05-06T13:22:40.287Z,99748.72
2023-05-06T13:25:14.247Z,99750.22
2023-05-06T13:27:41.094Z,99758.63
2023-05-06T13:30:08.915Z,99762.81
2023-05-06T13:32:35.919Z,99747.97
2023-05-06T13:35:02.848Z,99750.94
2023-05-06T13:37:29.687Z,99748.03
2023-05-06T13:39:56.499Z,99747.09
2023-05-06T13:42:23.514Z,99742.38
2023-05-06T13:44:50.462Z,99742.56
2023-05-06T13:47:17.222Z,99736.25
2023-05-06T13:49:44.037Z,99737.69
2023-05-06T13:52:10.929Z,99748.31
2023-05-06T13:54:37.768Z,99749.09
2023-05-06T13:57:04.702Z,99751.53
2023-05-06T13:59:31.646Z,99747.28
2023-05-06T14:01:59.072Z,99749.53
2023-05-06T14:04:25.946Z,99753.47
2023-05-06T14:06:52.936Z,99751.44
2023-05-06T14:09:19.757Z,99745.59
2023-05-06T14:11:46.700Z,99751.06
2023-05-06T14:14:13.615Z,99748.03
2023-05-06T14:16:40.540Z,99756.25
2023-05-06T14:19:07.465Z,99751.78
2023-05-06T14:21:34.705Z,99747.75
2023-05-06T14:24:01.558Z,99744.34
2023-05-06T14:26:28.486Z,99742.97
2023-05-06T14:28:55.272Z,99752.56
2023-05-06T14:31:22.162Z,99748.22
2023-05-06T14:33:49.038Z,99741.03
2023-05-06T14:36:20.168Z,99739.47
2023-05-06T14:38:47.083Z,99752.72
2023-05-06T14:41:13.893Z,99757.28
2023-05-06T14:43:40.733Z,99756.78
2023-05-06T14:46:07.991Z,99758.22
2023-05-06T14:48:34.823Z,99762.72
2023-05-06T14:51:01.690Z,99759.06
2023-05-06T14:53:28.557Z,99760.53
2023-05-06T14:55:56.572Z,99754.03
2023-05-06T14:58:23.486Z,99761.19
2023-05-06T15:00:50.793Z,99761.34
2023-05-06T15:03:17.748Z,99762.13
2023-05-06T15:05:44.660Z,99756.41
2023-05-06T15:08:11.522Z,99760.59
2023-05-06T15:10:38.337Z,99762.44
2023-05-06T15:13:05.237Z,99761.69
2023-05-06T15:15:32.067Z,99759.06
2023-05-06T15:17:59.165Z,99762.75
2023-05-06T15:20:26.495Z,99758.31
2023-05-06T15:22:53.299Z,99758.19
2023-05-06T15:25:33.370Z,99760.84
2023-05-06T15:28:01.708Z,99759.94
2023-05-06T15:30:28.508Z,99759.47
2023-05-06T15:32:55.402Z,99758.00
2023-05-06T15:35:22.450Z,99768.00
2023-05-06T15:37:49.226Z,99767.50
2023-05-06T15:40:16.056Z,99758.81
2023-05-06T15:42:42.996Z,99767.19
2023-05-06T15:45:11.335Z,99765.97
2023-05-06T15:47:38.178Z,99763.63
2023-05-06T15:50:14.102Z,99758.72
2023-05-06T15:52:51.922Z,99763.00
2023-05-06T15:57:46.473Z,99759.16
2023-05-06T16:00:14.125Z,99762.13
2023-05-06T16:02:41.300Z,99771.50
2023-05-06T16:05:09.882Z,99769.34
2023-05-06T16:07:36.841Z,99765.56
2023-05-06T16:10:04.435Z,99770.94
2023-05-06T16:12:32.766Z,99767.03
2023-05-06T16:15:00.517Z,99763.97
2023-05-06T16:17:27.433Z,99761.41
2023-05-06T16:19:54.309Z,99759.75
2023-05-06T16:22:21.107Z,99759.50
2023-05-06T16:24:47.877Z,99761.34
2023-05-06T16:27:16.042Z,99748.81
2023-05-06T16:29:42.830Z,99749.13
2023-05-06T16:32:09.729Z,99749.53
2023-05-06T16:34:38.976Z,99753.81
2023-05-06T16:37:07.997Z,99746.59
2023-05-06T16:39:34.861Z,99761.75
2023-05-06T16:42:02.071Z,99753.13
2023-05-06T16:44:29.448Z,99755.34
2023-05-06T16:46:56.837Z,99758.03
2023-05-06T16:49:27.770Z,99757.09
2023-05-06T16:51:54.894Z,99774.28
2023-05-06T16:54:21.744Z,99774.28
2023-05-06T16:56:52.056Z,99779.41
2023-05-06T16:59:21.872Z,99785.81
2023-05-06T17:01:49.878Z,99780.94
2023-05-06T17:04:16.964Z,99788.16
2023-05-06T17:06:43.866Z,99794.03
2023-05-06T17:09:11.155Z,99792.59
2023-05-06T17:11:37.985Z,99793.63
2023-05-06T17:14:04.951Z,99798.53
2023-05-06T17:16:31.925Z,99799.19
2023-05-06T17:18:58.828Z,99802.13
2023-05-06T17:21:26.970Z,99809.72
2023-05-06T17:23:54.586Z,99814.72
2023-05-06T17:26:22.144Z,99813.91
2023-05-06T17:28:49.130Z,99815.97
2023-05-06T17:31:16.226Z,99815.78
2023-05-06T17:33:44.495Z,99817.13
2023-05-06T17:36:13.167Z,99821.06
2023-05-06T17:38:40.211Z,99829.81
2023-05-06T17:41:06.988Z,99831.03
2023-05-06T17:43:34.210Z,99830.84
2023-05-06T17:46:01.438Z,99836.91
2023-05-06T17:48:28.462Z,99837.19
2023-05-06T17:51:00.341Z,99840.09
2023-05-06T17:53:27.216Z,99846.28
2023-05-06T17:55:54.077Z,99846.84
2023-05-06T17:58:21.613Z,99853.72
2023-05-06T18:00:48.523Z,99854.84
2023-05-06T18:03:15.668Z,99863.53
2023-05-06T18:05:42.553Z,99865.75
2023-05-06T18:08:09.667Z,99871.47
2023-05-06T18:10:36.477Z,99882.22
2023-05-06T18:13:03.995Z,99897.13
2023-05-06T18:15:30.861Z,99902.22
2023-05-06T18:17:57.761Z,99904.09
2023-05-06T18:20:24.805Z,99917.66
2023-05-06T18:22:51.673Z,99914.44
2023-05-06T18:25:18.786Z,99918.28
2023-05-06T18:27:46.644Z,99922.41
2023-05-06T18:30:15.185Z,99930.59
2023-05-06T18:32:42.056Z,99944.88
2023-05-06T18:35:10.949Z,99947.03
2023-05-06T18:37:38.538Z,99947.47
2023-05-06T18:40:06.302Z,99947.22
2023-05-06T18:42:34.021Z,99947.25
2023-05-06T18:45:04.962Z,99950.00
2023-05-06T18:47:32.562Z,99949.72
2023-05-06T18:50:00.790Z,99945.00
2023-05-06T18:52:28.010Z,99961.09
2023-05-06T18:54:54.861Z,99960.13
2023-05-06T18:57:21.772Z,99960.84
2023-05-06T18:59:48.671Z,99966.22
2023-05-06T19:02:15.628Z,99967.34
2023-05-06T19:04:43.922Z,99969.13
2023-05-06T19:07:11.233Z,99974.22
2023-05-06T19:09:38.146Z,99978.13
2023-05-06T19:12:05.090Z,99980.59
2023-05-06T19:14:32.588Z,99991.31
2023-05-06T19:16:59.914Z,99983.75
2023-05-06T19:19:26.759Z,99994.91
2023-05-06T19:21:53.982Z,100002.16
2023-05-06T19:24:20.842Z,100004.28
2023-05-06T19:26:47.623Z,100005.44
2023-05-06T19:29:14.882Z,100013.69
2023-05-06T19:31:41.906Z,100018.97
2023-05-06T19:34:08.733Z,100008.72
2023-05-06T19:36:35.617Z,100009.56
2023-05-06T19:39:02.450Z,100006.72
2023-05-06T19:41:29.433Z,100017.97
2023-05-06T19:43:56.267Z,100014.38
2023-05-06T19:46:23.182Z,100024.06
2023-05-06T19:48:50.066Z,100017.78
2023-05-06T19:51:17.396Z,100030.41
2023-05-06T19:53:44.328Z,100028.75
2023-05-06T19:56:12.822Z,100028.13
2023-05-06T19:58:39.821Z,100030.88
2023-05-06T20:01:06.894Z,100025.06
2023-05-06T20:03:33.954Z,100030.66
2023-05-06T20:06:01.265Z,100033.31
2023-05-06T20:08:28.213Z,100032.88
2023-05-06T20:10:55.156Z,100031.09
2023-05-06T20:13:22.097Z,100029.41
2023-05-06T20:15:49.106Z,100040.72
2023-05-06T20:18:16.358Z,100038.94
2023-05-06T20:20:43.431Z,100036.41
2023-05-06T20:23:10.380Z,100042.38
2023-05-06T20:25:37.410Z,100036.72
2023-05-06T20:28:07.242Z,100034.59
2023-05-06T20:30:34.625Z,100032.38
2023-05-06T20:33:01.733Z,100039.75
2023-05-06T20:35:28.589Z,100030.88
2023-05-06T20:37:55.858Z,100033.53
2023-05-06T20:40:22.849Z,100031.34
2023-05-06T20:42:49.687Z,100032.63
2023-05-06T20:45:16.688Z,100034.78
2023-05-06T20:47:43.631Z,100036.09
2023-05-06T20:50:16.758Z,100043.66
2023-05-06T20:52:45.689Z,100043.59
2023-05-06T20:55:14.797Z,100051.88
2023-05-06T20:57:43.464Z,100047.34
2023-05-06T21:00:11.533Z,100048.31
2023-05-06T21:02:41.322Z,100050.34
2023-05-06T21:05:09.870Z,100046.94
2023-05-06T21:07:36.816Z,100040.06
2023-05-06T21:10:05.897Z,100035.59
2023-05-06T21:12:33.514Z,100039.44
2023-05-06T21:15:00.706Z,100049.13
2023-05-06T21:17:28.224Z,100060.31
2023-05-06T21:19:55.366Z,100059.78
2023-05-06T21:22:24.913Z,100059.47
2023-05-06T21:24:52.199Z,100052.13
2023-05-06T21:27:19.072Z,100064.63
2023-05-06T21:29:45.956Z,100059.38
2023-05-06T21:32:12.773Z,100058.53
2023-05-06T21:34:39.623Z,100061.59
2023-05-06T21:37:06.727Z,100060.16
2023-05-06T21:39:33.827Z,100055.94
2023-05-06T21:42:00.728Z,100055.81
2023-05-06T21:44:27.491Z,100056.84
2023-05-06T21:46:54.417Z,100051.06
2023-05-06T21:49:22.432Z,100055.13
2023-05-06T21:51:49.466Z,100052.91
2023-05-06T21:54:17.459Z,100049.09
2023-05-06T21:56:44.923Z,100042.63
2023-05-06T21:59:11.965Z,100045.31
2023-05-06T22:01:39.050Z,100045.16
2023-05-06T22:04:11.498Z,100042.50
2023-05-06T22:06:39.403Z,100032.09
2023-05-06T22:09:09.571Z,100036.28
2023-05-06T22:11:41.045Z,100035.50
2023-05-06T22:14:07.957Z,100029.84
2023-05-06T22:16:38.170Z,100038.56
2023-05-06T22:19:05.863Z,100047.94
2023-05-06T22:21:34.642Z,100041.25
2023-05-06T22:24:01.607Z,100040.06
2023-05-06T22:26:28.699Z,100033.03
2023-05-06T22:28:56.429Z,100031.91
2023-05-06T22:31:24.711Z,100040.84
2023-05-06T22:33:55.582Z,100036.28
2023-05-06T22:36:22.692Z,100034.88
2023-05-06T22:38:50.018Z,100041.59
2023-05-06T22:41:18.301Z,100035.16
2023-05-06T22:43:45.169Z,100027.81
2023-05-06T22:46:12.033Z,100030.00
2023-05-06T22:48:39.355Z,100029.94
2023-05-06T22:51:06.694Z,100021.38
2023-05-06T22:53:33.505Z,100020.25
2023-05-06T22:56:00.418Z,100020.03
2023-05-06T22:58:27.266Z,100021.97
2023-05-06T23:00:54.905Z,100016.84
2023-05-06T23:03:22.927Z,100010.19
2023-05-06T23:05:50.175Z,100003.00
2023-05-06T23:08:17.301Z,100002.38
2023-05-06T23:10:44.274Z,99990.50
2023-05-06T23:13:12.581Z,99992.78
2023-05-06T23:15:40.162Z,99984.44
2023-05-06T23:18:07.210Z,99992.97
2023-05-06T23:20:34.324Z,99994.13
2023-05-06T23:23:01.145Z,99988.13
2023-05-06T23:25:28.170Z,99989.16
2023-05-06T23:27:55.375Z,99987.94
2023-05-06T23:30:22.478Z,99985.50
2023-05-06T23:32:49.331Z,99992.50
2023-05-06T23:35:16.193Z,99981.25
2023-05-06T23:37:43.093Z,99983.06
2023-05-06T23:40:12.593Z,99976.72
2023-05-06T23:42:40.072Z,99981.41
2023-05-06T23:45:07.391Z,99969.78
2023-05-06T23:47:34.250Z,99967.06
2023-05-06T23:50:01.531Z,99972.19
2023-05-06T23:52:28.346Z,99968.75
2023-05-06T23:54:55.142Z,99973.97
2023-05-06T23:57:22.058Z,99969.78
2023-05-06T23:59:48.882Z,99965.13
